Portada
METAR-TAF:

METAR-TAF

Aeropuertos :

Bou Saâda, Argelia

latitud: 35-20N, longitud: 004-12E, altitud: 461 m

Observación

El informe se hizo hace 21 minutos, a las 08:00 UTC
Viento calma
Temperatura 6°C
Humedad 70%
Presión 1030 hPa
Visibilidad 10 km o más
sin nubes por debajo de 1500 m y sin presencia de cumulonimbus.

METAR: DAAD 220800Z 00000KT CAVOK 06/01 Q1030

Hora: 09:21 (08:21 UTC)

Pronóstico

El informe se hizo hace 15 horas y 21 minutos, a las 17:00 UTC
Pronóstico válido del 21 a las 18 UTC al 22 a las 03 UTC
Viento 2 kt con dirección variable
Visibilidad: 6000 m
Escasas nubes a una altura de 3300 ft
Cielo nuboso a una altura de 10000 ft
Probabilidad 30%
del 21 a las 18 UTC al 21 a las 21 UTC
Visibilidad: 4000 m
calima

TAF: DAAD 211700Z 2118/2203 VRB02KT 6000 FEW033 BKN100 PROB30 2118/2121 4000 HZ

Observaciones y pronósticos meteorológicos de más de 4000 aeropuertos (mensajes METAR y TAF).

Los puntos amarillos y rojos representan las estaciones disponibles.

Ponga el ratón en el punto deseado para ver el nombre de la estación.

Haga clic para ver las observaciones y los pronósticos meteorológicos.

Para cambiar el mapa : haga clic en los botones verdes con una cruz de color negro para hacer un zoom, en el botón verde con un guión para alejar o en las flechas verdes para mapas adyacentes.


METAR-TAF: